KLRO/LRO METAR and TAF weather

Enter ICAO airport designator
Station Type Date Time Source
KLRO METAR 2021/07/28 20:15 UTC NOAA

KLRO 282015Z AUTO 00000KT 9SM FEW017 FEW023 29/26 A2995 RMK AO2


Station Type Date Time Source
KLRO Decoded METAR 2021/07/28 20:15 UTC NOAA

Station name not available
Jul 28, 2021 - 04:15 PM EDT / 2021.07.28 2015 UTC
Wind: Calm:0
Visibility: 9 mile(s):0
Sky conditions: mostly clear
Temperature: 84 F (29 C)
Dew Point: 78 F (26 C)
Relative Humidity: 83%
Pressure (altimeter): 29.95 in. Hg (1014 hPa)
ob: KLRO 282015Z AUTO 00000KT 9SM FEW017 FEW023 29/26 A2995 RMK AO2
cycle: 20

Station Type Date Time Source
KLRO TAF UTC NOAA

Error!

Example: see airport list